Steep Hollow, Texas
Current Conditions -  °F | °C
As of 4:53 PM on Sunday 21 Dec 2014 (Local Time) from KCLL Reporting Station
Overcast Overcast  
Wind Chill: 55°   Ceiling: 2800
Heat Index: 55°   Visibility: 10mi
Dew Point: 48°   Wind: 12mph
Humidity: 77%   Direction: 150°SSE
Pressure: 29.92"   Gusts: NA
Location:  30.6361°N, 96.3666°W
Report Text: KCLL 212253Z 15010KT 10SM OVC028 13/09 A2992 RMK AO2 SLP129 T01280089
Loading
Personal Weather Stations






























Interactive Weather Map New forecast layout! Learn more

10-Day Weather Forecast

Advertisements
Track Severe Weather on mobile